createdAt,value
2018-02-23T00:02:15.816Z,-0.70
2018-02-23T00:04:45.838Z,-0.70
2018-02-23T00:07:15.758Z,-0.80
2018-02-23T00:09:44.362Z,-1.00
2018-02-23T00:12:13.687Z,-1.20
2018-02-23T00:14:42.469Z,-1.30
2018-02-23T00:17:11.313Z,-1.40
2018-02-23T00:19:40.887Z,-1.40
2018-02-23T00:22:09.500Z,-1.40
2018-02-23T00:24:38.771Z,-1.40
2018-02-23T00:27:07.183Z,-1.30
2018-02-23T00:29:36.358Z,-1.40
2018-02-23T00:32:05.133Z,-1.40
2018-02-23T00:34:33.920Z,-1.40
2018-02-23T00:37:02.765Z,-1.30
2018-02-23T00:39:31.496Z,-1.30
2018-02-23T00:42:00.492Z,-1.30
2018-02-23T00:44:28.900Z,-1.30
2018-02-23T00:46:57.302Z,-1.40
2018-02-23T00:49:26.546Z,-1.60
2018-02-23T00:51:55.333Z,-1.60
2018-02-23T00:54:24.132Z,-1.60
2018-02-23T00:56:52.877Z,-1.70
2018-02-23T00:59:21.696Z,-1.70
2018-02-23T01:01:50.101Z,-1.70
2018-02-23T01:04:18.478Z,-1.70
2018-02-23T01:06:47.675Z,-1.70
2018-02-23T01:09:16.615Z,-1.70
2018-02-23T01:11:45.042Z,-1.70
2018-02-23T01:14:13.422Z,-1.70
2018-02-23T01:16:41.981Z,-1.80
2018-02-23T01:19:10.366Z,-1.80
2018-02-23T01:21:38.768Z,-1.70
2018-02-23T01:24:07.168Z,-1.60
2018-02-23T01:26:36.334Z,-1.70
2018-02-23T01:29:04.794Z,-1.70
2018-02-23T01:31:33.173Z,-1.70
2018-02-23T01:34:01.675Z,-1.70
2018-02-23T01:36:30.055Z,-1.80
2018-02-23T01:38:58.433Z,-1.80
2018-02-23T01:41:26.834Z,-1.80
2018-02-23T01:43:55.984Z,-1.70
2018-02-23T01:46:24.393Z,-1.70
2018-02-23T01:48:53.530Z,-1.60
2018-02-23T01:51:22.007Z,-1.60
2018-02-23T01:53:50.386Z,-1.70
2018-02-23T01:56:18.771Z,-1.70
2018-02-23T01:58:47.175Z,-1.70
2018-02-23T02:01:15.572Z,-1.70
2018-02-23T02:03:45.210Z,-1.70
2018-02-23T02:06:14.466Z,-1.70
2018-02-23T02:08:43.250Z,-1.70
2018-02-23T02:11:11.643Z,-1.60
2018-02-23T02:13:40.023Z,-1.60
2018-02-23T02:16:08.425Z,-1.50
2018-02-23T02:18:37.403Z,-1.40
2018-02-23T02:21:05.819Z,-1.40
2018-02-23T02:23:34.966Z,-1.40
2018-02-23T02:26:03.368Z,-1.40
2018-02-23T02:28:31.751Z,-1.40
2018-02-23T02:31:00.122Z,-1.40
2018-02-23T02:33:28.527Z,-1.40
2018-02-23T02:35:56.931Z,-1.40
2018-02-23T02:38:25.336Z,-1.40
2018-02-23T02:40:53.717Z,-1.50
2018-02-23T02:43:22.138Z,-1.60
2018-02-23T02:45:51.291Z,-1.50
2018-02-23T02:48:19.739Z,-1.50
2018-02-23T02:50:48.098Z,-1.50
2018-02-23T02:53:17.249Z,-1.50
2018-02-23T02:55:46.197Z,-1.50
2018-02-23T02:58:14.580Z,-1.50
2018-02-23T03:00:43.402Z,-1.40
2018-02-23T03:03:11.786Z,-1.30
2018-02-23T03:05:40.226Z,-1.30
2018-02-23T03:08:08.633Z,-1.40
2018-02-23T03:10:37.025Z,-1.40
2018-02-23T03:13:05.422Z,-1.40
2018-02-23T03:15:33.804Z,-1.40
2018-02-23T03:18:02.454Z,-1.40
2018-02-23T03:20:30.831Z,-1.50
2018-02-23T03:23:03.149Z,-1.50
2018-02-23T03:25:32.509Z,-1.60
2018-02-23T03:28:00.886Z,-1.60
2018-02-23T03:30:29.283Z,-1.60
2018-02-23T03:32:57.662Z,-1.50
2018-02-23T03:35:26.062Z,-1.60
2018-02-23T03:37:55.224Z,-1.60
2018-02-23T03:40:23.664Z,-1.60
2018-02-23T03:42:52.042Z,-1.70
2018-02-23T03:45:20.421Z,-1.70
2018-02-23T03:47:48.825Z,-1.70
2018-02-23T03:50:17.201Z,-1.70
2018-02-23T03:52:45.601Z,-1.60
2018-02-23T03:55:13.987Z,-1.60
2018-02-23T03:57:42.539Z,-1.60
2018-02-23T04:00:10.919Z,-1.60
2018-02-23T04:02:39.295Z,-1.60
2018-02-23T04:05:07.702Z,-1.70
2018-02-23T04:07:36.078Z,-1.70
2018-02-23T04:10:04.482Z,-1.70
2018-02-23T04:12:32.864Z,-1.60
2018-02-23T04:15:02.270Z,-1.50
2018-02-23T04:17:31.410Z,-1.50
2018-02-23T04:19:59.787Z,-1.50
2018-02-23T04:22:28.188Z,-1.60
2018-02-23T04:24:56.568Z,-1.60
2018-02-23T04:27:24.977Z,-1.60
2018-02-23T04:29:54.126Z,-1.50
2018-02-23T04:32:22.540Z,-1.60
2018-02-23T04:34:50.925Z,-1.60
2018-02-23T04:37:20.046Z,-1.60
2018-02-23T04:39:48.456Z,-1.70
2018-02-23T04:42:17.051Z,-1.70
2018-02-23T04:44:45.461Z,-1.70
2018-02-23T04:47:13.845Z,-1.70
2018-02-23T04:49:43.110Z,-1.70
2018-02-23T04:52:11.514Z,-1.70
2018-02-23T04:54:39.890Z,-1.50
2018-02-23T04:57:08.327Z,-1.50
2018-02-23T04:59:36.706Z,-1.50
2018-02-23T05:02:05.107Z,-1.50
2018-02-23T05:04:33.487Z,-1.60
2018-02-23T05:07:02.054Z,-1.60
2018-02-23T05:09:30.430Z,-1.60
2018-02-23T05:11:58.802Z,-1.60
2018-02-23T05:14:27.201Z,-1.70
2018-02-23T05:16:55.582Z,-1.70
2018-02-23T05:19:23.993Z,-1.70
2018-02-23T05:21:53.368Z,-1.60
2018-02-23T05:24:21.936Z,-1.60
2018-02-23T05:26:50.312Z,-1.60
2018-02-23T05:29:18.681Z,-1.60
2018-02-23T05:31:47.081Z,-1.60
2018-02-23T05:34:15.453Z,-1.50
2018-02-23T05:36:43.861Z,-1.50
2018-02-23T05:39:12.256Z,-1.60
2018-02-23T05:41:41.603Z,-1.60
2018-02-23T05:44:09.995Z,-1.60
2018-02-23T05:46:38.383Z,-1.60
2018-02-23T05:49:06.796Z,-1.60
2018-02-23T05:51:35.927Z,-1.70
2018-02-23T05:54:04.318Z,-1.70
2018-02-23T05:56:32.697Z,-1.70
2018-02-23T05:59:01.143Z,-1.70
2018-02-23T06:01:29.533Z,-1.70
2018-02-23T06:03:57.910Z,-1.70
2018-02-23T06:06:26.309Z,-1.80
2018-02-23T06:08:54.690Z,-1.80
2018-02-23T06:11:23.083Z,-1.80
2018-02-23T06:13:51.945Z,-1.90
2018-02-23T06:16:25.918Z,-1.80
2018-02-23T06:18:59.312Z,-1.80
2018-02-23T06:21:28.482Z,-1.70
2018-02-23T06:23:57.416Z,-1.70
2018-02-23T06:26:26.042Z,-1.80
2018-02-23T06:28:54.442Z,-1.80
2018-02-23T06:31:22.814Z,-1.80
2018-02-23T06:33:51.217Z,-1.80
2018-02-23T06:36:20.361Z,-1.80
2018-02-23T06:38:49.047Z,-1.90
2018-02-23T06:41:17.886Z,-1.90
2018-02-23T06:43:47.030Z,-1.90
2018-02-23T06:46:15.440Z,-1.90
2018-02-23T06:48:43.821Z,-1.90
2018-02-23T06:51:13.734Z,-1.90
2018-02-23T06:53:42.250Z,-1.90
2018-02-23T06:56:11.585Z,-1.90
2018-02-23T06:58:39.972Z,-1.90
2018-02-23T07:01:08.347Z,-1.90
2018-02-23T07:03:36.747Z,-1.80
2018-02-23T07:06:05.130Z,-1.90
2018-02-23T07:08:33.549Z,-1.80
2018-02-23T07:11:01.990Z,-1.90
2018-02-23T07:13:30.844Z,-2.00
2018-02-23T07:15:59.221Z,-2.00
2018-02-23T07:18:27.593Z,-1.90
2018-02-23T07:20:55.994Z,-2.00
2018-02-23T07:23:24.370Z,-1.90
2018-02-23T07:25:52.762Z,-1.90
2018-02-23T07:28:21.138Z,-2.00
2018-02-23T07:30:49.574Z,-2.00
2018-02-23T07:33:17.954Z,-2.00
2018-02-23T07:35:46.333Z,-2.10
2018-02-23T07:38:14.730Z,-2.10
2018-02-23T07:40:43.101Z,-2.10
2018-02-23T07:43:11.509Z,-2.00
2018-02-23T07:45:39.897Z,-2.00
2018-02-23T07:48:08.341Z,-1.90
2018-02-23T07:50:36.731Z,-1.90
2018-02-23T07:53:05.110Z,-1.90
2018-02-23T07:55:33.529Z,-2.00
2018-02-23T07:58:01.917Z,-2.00
2018-02-23T08:00:31.096Z,-1.90
2018-02-23T08:02:59.491Z,-1.90
2018-02-23T08:05:28.678Z,-2.00
2018-02-23T08:07:57.068Z,-2.00
2018-02-23T08:10:26.237Z,-2.10
2018-02-23T08:12:54.630Z,-2.10
2018-02-23T08:15:23.022Z,-2.00
2018-02-23T08:17:52.189Z,-2.20
2018-02-23T08:20:20.598Z,-2.20
2018-02-23T08:22:49.950Z,-2.20
2018-02-23T08:25:18.322Z,-2.20
2018-02-23T08:27:46.699Z,-2.20
2018-02-23T08:30:15.090Z,-2.20
2018-02-23T08:32:43.462Z,-2.10
2018-02-23T08:35:11.874Z,-2.00
2018-02-23T08:37:40.274Z,-2.00
2018-02-23T08:40:09.474Z,-1.80
2018-02-23T08:42:38.624Z,-1.80
2018-02-23T08:45:06.995Z,-1.90
2018-02-23T08:47:35.423Z,-1.80
2018-02-23T08:50:04.574Z,-1.60
2018-02-23T08:52:33.002Z,-1.60
2018-02-23T08:55:01.385Z,-1.40
2018-02-23T08:57:30.734Z,-1.50
2018-02-23T08:59:59.119Z,-1.50
2018-02-23T09:02:27.489Z,-1.60
2018-02-23T09:04:55.902Z,-1.60
2018-02-23T09:07:24.293Z,-1.70
2018-02-23T09:09:53.453Z,-1.60
2018-02-23T09:12:21.830Z,-1.60
2018-02-23T09:14:50.417Z,-1.60
2018-02-23T09:17:18.805Z,-1.50
2018-02-23T09:19:47.185Z,-1.50
2018-02-23T09:22:15.593Z,-1.50
2018-02-23T09:24:44.737Z,-1.40
2018-02-23T09:27:13.137Z,-1.50
2018-02-23T09:29:41.518Z,-1.40
2018-02-23T09:32:27.896Z,-1.30
2018-02-23T09:34:56.295Z,-1.30
2018-02-23T09:37:24.672Z,-1.30
2018-02-23T09:39:53.141Z,-1.20
2018-02-23T09:42:21.510Z,-1.20
2018-02-23T09:44:49.910Z,-1.20
2018-02-23T09:47:18.305Z,-1.20
2018-02-23T09:49:46.946Z,-1.30
2018-02-23T09:52:15.340Z,-1.30
2018-02-23T09:54:43.728Z,-1.30
2018-02-23T09:57:12.125Z,-1.30
2018-02-23T09:59:40.508Z,-1.40
2018-02-23T10:02:08.909Z,-1.50
2018-02-23T10:04:38.063Z,-1.40
2018-02-23T10:07:06.499Z,-1.40
2018-02-23T10:09:34.886Z,-1.30
2018-02-23T10:12:03.298Z,-1.20
2018-02-23T10:14:31.677Z,-1.00
2018-02-23T10:17:00.073Z,-0.90
2018-02-23T10:19:28.497Z,-0.80
2018-02-23T10:21:57.219Z,-0.80
2018-02-23T10:24:25.596Z,-0.80
2018-02-23T10:26:53.973Z,-0.70
2018-02-23T10:29:22.379Z,-0.60
2018-02-23T10:31:50.755Z,-0.60
2018-02-23T10:34:20.009Z,-0.60
2018-02-23T10:36:48.397Z,-0.60
2018-02-23T10:39:17.133Z,-0.50
2018-02-23T10:41:46.318Z,-0.40
2018-02-23T10:44:14.698Z,-0.40
2018-02-23T10:46:43.128Z,-0.50
2018-02-23T10:49:11.522Z,-0.50
2018-02-23T10:51:39.930Z,-0.50
2018-02-23T10:54:08.398Z,-0.50
2018-02-23T10:56:36.805Z,-0.50
2018-02-23T10:59:05.998Z,-0.50
2018-02-23T11:01:35.156Z,-0.60
2018-02-23T11:04:03.599Z,-0.60
2018-02-23T11:06:31.986Z,-0.60
2018-02-23T11:09:00.396Z,-0.50
2018-02-23T11:11:28.772Z,-0.40
2018-02-23T11:13:57.317Z,-0.30
2018-02-23T11:16:25.705Z,-0.20
2018-02-23T11:18:54.074Z,-0.30
2018-02-23T11:21:22.488Z,-0.30
2018-02-23T11:23:50.865Z,-0.40
2018-02-23T11:26:19.310Z,-0.50
2018-02-23T11:28:47.683Z,-0.40
2018-02-23T11:31:16.303Z,-0.30
2018-02-23T11:33:44.705Z,-0.40
2018-02-23T11:36:13.091Z,-0.40
2018-02-23T11:38:41.489Z,-0.40
2018-02-23T11:41:10.634Z,-0.40
2018-02-23T11:43:39.045Z,-0.40
2018-02-23T11:46:08.337Z,-0.30
2018-02-23T11:48:37.207Z,-0.40
2018-02-23T11:51:05.592Z,-0.30
2018-02-23T11:53:33.967Z,-0.10
2018-02-23T11:56:02.368Z,-0.10
2018-02-23T11:58:30.749Z,-0.10
2018-02-23T12:00:59.144Z,-0.10
2018-02-23T12:03:28.291Z,-0.10
2018-02-23T12:05:56.781Z,-0.10
2018-02-23T12:08:25.159Z,0.00
2018-02-23T12:10:53.530Z,0.00
2018-02-23T12:13:21.933Z,0.00
2018-02-23T12:15:50.336Z,0.00
2018-02-23T12:18:19.506Z,0.10
2018-02-23T12:20:47.886Z,0.00
2018-02-23T12:23:16.643Z,0.20
2018-02-23T12:25:45.022Z,0.10
2018-02-23T12:28:13.428Z,0.00
2018-02-23T12:30:41.883Z,0.00
2018-02-23T12:33:10.262Z,0.00
2018-02-23T12:35:38.663Z,-0.10
2018-02-23T12:38:07.094Z,-0.10
2018-02-23T12:40:35.699Z,0.00
2018-02-23T12:43:04.083Z,0.00
2018-02-23T12:45:32.483Z,0.00
2018-02-23T12:48:00.970Z,-0.10
2018-02-23T12:50:29.357Z,-0.10
2018-02-23T12:52:57.761Z,-0.10
2018-02-23T12:55:26.150Z,0.00
2018-02-23T12:57:55.076Z,0.10
2018-02-23T13:00:23.463Z,0.10
2018-02-23T13:02:51.831Z,0.10
2018-02-23T13:05:20.229Z,0.00
2018-02-23T13:07:48.639Z,0.00
2018-02-23T13:10:17.888Z,0.00
2018-02-23T13:12:47.080Z,0.10
2018-02-23T13:15:19.409Z,0.00
2018-02-23T13:17:47.774Z,0.10
2018-02-23T13:20:16.147Z,0.20
2018-02-23T13:22:44.758Z,0.20
2018-02-23T13:25:13.891Z,0.10
2018-02-23T13:27:42.295Z,0.10
2018-02-23T13:30:10.718Z,0.10
2018-02-23T13:32:40.048Z,0.10
2018-02-23T13:35:08.438Z,0.10
2018-02-23T13:37:37.119Z,0.10
2018-02-23T13:40:05.498Z,0.20
2018-02-23T13:42:33.931Z,0.30
2018-02-23T13:45:03.940Z,0.40
2018-02-23T13:47:33.266Z,0.60
2018-02-23T13:50:01.683Z,0.50
2018-02-23T13:52:30.150Z,0.60
2018-02-23T13:54:58.747Z,0.50
2018-02-23T13:57:27.144Z,0.50
2018-02-23T13:59:55.900Z,0.50
2018-02-23T14:02:24.315Z,0.60
2018-02-23T14:04:52.691Z,0.60
2018-02-23T14:10:23.717Z,0.80
2018-02-23T14:12:54.766Z,0.80
2018-02-23T14:15:23.989Z,0.70
2018-02-23T14:17:52.750Z,0.70
2018-02-23T14:20:21.181Z,0.70
2018-02-23T14:22:50.504Z,0.80
2018-02-23T14:25:19.022Z,0.80
2018-02-23T14:27:49.570Z,0.90
2018-02-23T14:30:19.085Z,0.90
2018-02-23T14:32:47.929Z,0.80
2018-02-23T14:35:16.408Z,0.80
2018-02-23T14:37:44.888Z,0.70
2018-02-23T14:40:14.803Z,0.60
2018-02-23T14:42:43.897Z,0.60
2018-02-23T14:45:12.319Z,0.70
2018-02-23T14:47:40.755Z,0.80
2018-02-23T14:50:26.845Z,0.90
2018-02-23T14:52:55.792Z,0.80
2018-02-23T14:55:24.739Z,0.80
2018-02-23T14:57:54.726Z,0.80
2018-02-23T15:00:23.501Z,1.00
2018-02-23T15:02:52.329Z,0.90
2018-02-23T15:05:21.913Z,0.90
2018-02-23T15:07:50.622Z,0.90
2018-02-23T15:10:18.999Z,0.90
2018-02-23T15:12:47.366Z,0.80
2018-02-23T15:15:15.757Z,0.90
2018-02-23T15:17:44.814Z,0.90
2018-02-23T15:20:13.250Z,0.90
2018-02-23T15:22:41.647Z,0.90
2018-02-23T15:25:11.102Z,0.80
2018-02-23T15:27:39.696Z,0.80
2018-02-23T15:30:08.405Z,0.70
2018-02-23T15:32:42.107Z,0.70
2018-02-23T15:35:10.495Z,0.80
2018-02-23T15:37:46.181Z,0.90
2018-02-23T15:40:14.882Z,0.90
2018-02-23T15:42:43.262Z,1.00
2018-02-23T15:45:11.678Z,1.00
2018-02-23T15:47:42.611Z,1.00
2018-02-23T15:50:16.485Z,1.00
2018-02-23T15:52:44.865Z,1.00
2018-02-23T15:55:13.275Z,1.00
2018-02-23T15:57:49.103Z,0.90
2018-02-23T16:00:17.588Z,0.90
2018-02-23T16:02:46.002Z,1.00
2018-02-23T16:05:14.426Z,1.00
2018-02-23T16:07:42.847Z,1.10
2018-02-23T16:10:11.274Z,1.10
2018-02-23T16:12:39.792Z,1.10
2018-02-23T16:15:08.193Z,1.00
2018-02-23T16:17:36.881Z,1.00
2018-02-23T16:20:05.258Z,1.00
2018-02-23T16:22:33.677Z,1.00
2018-02-23T16:25:02.066Z,0.90
2018-02-23T16:27:30.444Z,0.90
2018-02-23T16:29:58.870Z,0.90
2018-02-23T16:32:27.233Z,1.00
2018-02-23T16:34:55.629Z,1.10
2018-02-23T16:37:24.006Z,1.10
2018-02-23T16:39:52.430Z,1.10
2018-02-23T16:42:20.855Z,1.10
2018-02-23T16:44:49.393Z,1.10
2018-02-23T16:47:17.798Z,1.10
2018-02-23T16:49:46.162Z,1.10
2018-02-23T16:52:14.554Z,1.10
2018-02-23T16:54:42.933Z,1.10
2018-02-23T16:57:11.518Z,1.20
2018-02-23T16:59:39.890Z,1.20
2018-02-23T17:02:08.265Z,1.20
2018-02-23T17:04:36.655Z,1.20
2018-02-23T17:07:05.026Z,1.20
2018-02-23T17:09:33.422Z,1.10
2018-02-23T17:12:01.878Z,1.10
2018-02-23T17:14:30.574Z,1.10
2018-02-23T17:16:58.942Z,1.10
2018-02-23T17:19:27.309Z,1.10
2018-02-23T17:21:55.699Z,1.10
2018-02-23T17:24:24.068Z,1.00
2018-02-23T17:26:52.468Z,1.10
2018-02-23T17:29:20.842Z,1.10
2018-02-23T17:31:49.537Z,1.10
2018-02-23T17:34:17.919Z,1.10
2018-02-23T17:36:46.286Z,1.10
2018-02-23T17:39:14.674Z,1.20
2018-02-23T17:41:43.040Z,1.20
2018-02-23T17:44:11.455Z,1.20
2018-02-23T17:46:39.819Z,1.20
2018-02-23T17:49:08.481Z,1.10
2018-02-23T17:51:36.858Z,1.10
2018-02-23T17:54:05.228Z,1.10
2018-02-23T17:56:33.614Z,1.00
2018-02-23T17:59:01.986Z,1.00
2018-02-23T18:01:30.386Z,1.10
2018-02-23T18:03:58.755Z,1.10
2018-02-23T18:06:27.386Z,1.10
2018-02-23T18:08:55.755Z,1.10
2018-02-23T18:11:24.143Z,1.10
2018-02-23T18:13:53.311Z,1.10
2018-02-23T18:16:21.686Z,1.00
2018-02-23T18:18:50.129Z,1.00
2018-02-23T18:21:18.506Z,1.00
2018-02-23T18:23:47.155Z,1.00
2018-02-23T18:26:16.377Z,1.10
2018-02-23T18:28:45.739Z,1.10
2018-02-23T18:31:14.174Z,1.10
2018-02-23T18:33:42.539Z,1.10
2018-02-23T18:36:11.696Z,1.10
2018-02-23T18:38:40.079Z,1.10
2018-02-23T18:41:08.510Z,1.00
2018-02-23T18:43:36.886Z,1.00
2018-02-23T18:46:05.701Z,1.00
2018-02-23T18:48:34.098Z,1.00
2018-02-23T18:51:03.500Z,1.00
2018-02-23T18:53:31.916Z,1.00
2018-02-23T18:56:01.076Z,1.10
2018-02-23T18:58:29.571Z,1.00
2018-02-23T19:00:58.330Z,1.10
2018-02-23T19:03:26.965Z,1.10
2018-02-23T19:05:56.160Z,1.10
2018-02-23T19:08:26.419Z,1.10
2018-02-23T19:10:54.891Z,1.10
2018-02-23T19:13:23.293Z,1.10
2018-02-23T19:15:51.861Z,1.10
2018-02-23T19:18:20.933Z,1.10
2018-02-23T19:20:49.553Z,1.00
2018-02-23T19:23:19.538Z,0.90
2018-02-23T19:25:48.352Z,0.90
2018-02-23T19:28:16.914Z,0.90
2018-02-23T19:30:45.936Z,0.90
2018-02-23T19:33:14.781Z,0.90
2018-02-23T19:35:43.305Z,0.90
2018-02-23T19:38:11.670Z,0.80
2018-02-23T19:40:40.100Z,0.80
2018-02-23T19:43:08.472Z,0.80
2018-02-23T19:45:36.961Z,0.80
2018-02-23T19:48:05.338Z,0.80
2018-02-23T19:50:33.888Z,0.70
2018-02-23T19:53:02.261Z,0.80
2018-02-23T19:55:31.509Z,0.80
2018-02-23T19:58:00.906Z,0.90
2018-02-23T20:00:30.177Z,0.90
2018-02-23T20:02:58.598Z,0.90
2018-02-23T20:05:28.763Z,0.90
2018-02-23T20:08:01.069Z,0.90
2018-02-23T20:10:31.664Z,0.90
2018-02-23T20:13:00.774Z,0.90
2018-02-23T20:15:29.760Z,0.90
2018-02-23T20:17:59.564Z,0.90
2018-02-23T20:20:28.948Z,0.90
2018-02-23T20:22:57.818Z,0.90
2018-02-23T20:25:27.745Z,0.90
2018-02-23T20:27:57.024Z,0.80
2018-02-23T20:30:25.829Z,0.70
2018-02-23T20:32:55.111Z,0.70
2018-02-23T20:35:23.809Z,0.70
2018-02-23T20:37:53.085Z,0.80
2018-02-23T20:40:23.121Z,0.70
2018-02-23T20:42:52.493Z,0.80
2018-02-23T20:45:21.652Z,0.80
2018-02-23T20:47:51.367Z,0.80
2018-02-23T20:50:21.439Z,0.90
2018-02-23T20:52:50.567Z,0.90
2018-02-23T20:55:20.006Z,0.90
2018-02-23T20:57:50.281Z,0.90
2018-02-23T21:00:19.295Z,0.90
2018-02-23T21:02:49.781Z,0.90
2018-02-23T21:05:19.436Z,0.90
2018-02-23T21:07:51.340Z,0.90
2018-02-23T21:10:20.446Z,0.90
2018-02-23T21:12:51.315Z,0.80
2018-02-23T21:15:20.671Z,0.80
2018-02-23T21:17:50.714Z,0.80
2018-02-23T21:20:20.536Z,0.80
2018-02-23T21:22:50.627Z,0.80
2018-02-23T21:25:19.566Z,0.80
2018-02-23T21:27:49.889Z,0.70
2018-02-23T21:30:19.189Z,0.70
2018-02-23T21:32:49.230Z,0.70
2018-02-23T21:35:19.276Z,0.60
2018-02-23T21:37:48.626Z,0.50
2018-02-23T21:40:18.644Z,0.40
2018-02-23T21:42:47.570Z,0.40
2018-02-23T21:45:16.961Z,0.30
2018-02-23T21:47:46.153Z,0.30
2018-02-23T21:50:15.382Z,0.30
2018-02-23T21:52:45.704Z,0.30
2018-02-23T21:55:15.695Z,0.30
2018-02-23T21:57:44.781Z,0.30
2018-02-23T22:00:14.418Z,0.30
2018-02-23T22:02:44.350Z,0.40
2018-02-23T22:05:14.459Z,0.40
2018-02-23T22:07:44.540Z,0.30
2018-02-23T22:10:14.646Z,0.30
2018-02-23T22:12:44.232Z,0.40
2018-02-23T22:15:13.633Z,0.40
2018-02-23T22:17:42.342Z,0.50
2018-02-23T22:20:11.943Z,0.40
2018-02-23T22:22:41.270Z,0.40
2018-02-23T22:25:09.649Z,0.40
2018-02-23T22:27:38.304Z,0.40
2018-02-23T22:30:07.959Z,0.40
2018-02-23T22:32:37.013Z,0.30
2018-02-23T22:35:05.430Z,0.30
2018-02-23T22:37:34.740Z,0.30
2018-02-23T22:40:04.119Z,0.20
2018-02-23T22:42:32.942Z,0.20
2018-02-23T22:45:03.110Z,0.20
2018-02-23T22:47:31.991Z,0.20
2018-02-23T22:50:00.870Z,0.20
2018-02-23T22:52:29.857Z,0.20
2018-02-23T22:54:58.776Z,0.10
2018-02-23T22:57:29.557Z,0.20
2018-02-23T23:02:51.366Z,0.10
2018-02-23T23:05:23.220Z,0.10
2018-02-23T23:07:54.345Z,0.10
2018-02-23T23:10:22.746Z,0.10
2018-02-23T23:12:58.973Z,0.10
2018-02-23T23:15:30.699Z,0.10
2018-02-23T23:18:01.138Z,0.10
2018-02-23T23:20:36.215Z,0.20
2018-02-23T23:23:05.674Z,0.00
2018-02-23T23:25:40.004Z,0.00
2018-02-23T23:28:10.728Z,0.00
2018-02-23T23:30:40.749Z,0.00
2018-02-23T23:33:10.253Z,-0.10
2018-02-23T23:41:02.574Z,-0.10
2018-02-23T23:43:38.827Z,0.00
2018-02-23T23:46:08.153Z,0.00
2018-02-23T23:48:36.690Z,0.00
2018-02-23T23:51:05.062Z,0.00
2018-02-23T23:53:33.441Z,0.00
2018-02-23T23:56:01.839Z,0.00
2018-02-23T23:58:30.226Z,-0.10
